sensor_id;sensor_type;location;lat;lon;timestamp;P1;durP1;ratioP1;P2;durP2;ratioP2
79401;SDS011;68857;47.916;106.940;2023-09-07T00:00:31;2.17;;;0.73;;
79401;SDS011;68857;47.916;106.940;2023-09-07T00:02:57;2.10;;;0.88;;
79401;SDS011;68857;47.916;106.940;2023-09-07T00:05:25;1.88;;;0.68;;
79401;SDS011;68857;47.916;106.940;2023-09-07T00:07:52;1.90;;;0.88;;
79401;SDS011;68857;47.916;106.940;2023-09-07T00:10:19;2.08;;;0.60;;
79401;SDS011;68857;47.916;106.940;2023-09-07T00:12:45;1.23;;;0.60;;
79401;SDS011;68857;47.916;106.940;2023-09-07T00:15:12;2.38;;;0.63;;
79401;SDS011;68857;47.916;106.940;2023-09-07T00:17:38;2.88;;;0.75;;
79401;SDS011;68857;47.916;106.940;2023-09-07T00:20:05;2.92;;;0.73;;
79401;SDS011;68857;47.916;106.940;2023-09-07T00:22:41;3.42;;;0.80;;
79401;SDS011;68857;47.916;106.940;2023-09-07T00:25:08;1.27;;;0.60;;
79401;SDS011;68857;47.916;106.940;2023-09-07T00:27:34;1.55;;;0.55;;
79401;SDS011;68857;47.916;106.940;2023-09-07T00:30:01;1.60;;;0.50;;
79401;SDS011;68857;47.916;106.940;2023-09-07T00:32:31;1.63;;;0.60;;
79401;SDS011;68857;47.916;106.940;2023-09-07T00:34:58;1.80;;;0.93;;
79401;SDS011;68857;47.916;106.940;2023-09-07T00:37:25;1.70;;;0.80;;
79401;SDS011;68857;47.916;106.940;2023-09-07T00:39:51;2.55;;;0.63;;
79401;SDS011;68857;47.916;106.940;2023-09-07T00:42:18;2.20;;;1.52;;
79401;SDS011;68857;47.916;106.940;2023-09-07T00:44:44;2.58;;;0.70;;
79401;SDS011;68857;47.916;106.940;2023-09-07T00:47:13;1.42;;;0.60;;
79401;SDS011;68857;47.916;106.940;2023-09-07T00:49:39;1.58;;;0.60;;
79401;SDS011;68857;47.916;106.940;2023-09-07T00:52:06;1.45;;;0.55;;
79401;SDS011;68857;47.916;106.940;2023-09-07T00:54:35;1.33;;;0.40;;
79401;SDS011;68857;47.916;106.940;2023-09-07T00:57:04;2.30;;;0.60;;
79401;SDS011;68857;47.916;106.940;2023-09-07T00:59:32;0.60;;;0.60;;
79401;SDS011;68857;47.916;106.940;2023-09-07T01:01:58;1.50;;;0.90;;
79401;SDS011;68857;47.916;106.940;2023-09-07T01:04:25;1.23;;;0.63;;
79401;SDS011;68857;47.916;106.940;2023-09-07T01:09:37;0.75;;;0.68;;
79401;SDS011;68857;47.916;106.940;2023-09-07T01:12:06;1.80;;;0.88;;
79401;SDS011;68857;47.916;106.940;2023-09-07T01:14:36;0.75;;;0.65;;
79401;SDS011;68857;47.916;106.940;2023-09-07T01:17:03;1.77;;;0.57;;
79401;SDS011;68857;47.916;106.940;2023-09-07T01:19:30;1.38;;;0.63;;
79401;SDS011;68857;47.916;106.940;2023-09-07T01:21:56;1.60;;;0.70;;
79401;SDS011;68857;47.916;106.940;2023-09-07T01:24:23;1.50;;;1.40;;
79401;SDS011;68857;47.916;106.940;2023-09-07T01:26:50;1.15;;;0.68;;
79401;SDS011;68857;47.916;106.940;2023-09-07T01:29:17;0.65;;;0.52;;
79401;SDS011;68857;47.916;106.940;2023-09-07T01:31:43;1.73;;;1.00;;
79401;SDS011;68857;47.916;106.940;2023-09-07T01:34:10;1.88;;;0.80;;
79401;SDS011;68857;47.916;106.940;2023-09-07T01:36:37;1.02;;;0.50;;
79401;SDS011;68857;47.916;106.940;2023-09-07T01:39:03;0.60;;;0.50;;
79401;SDS011;68857;47.916;106.940;2023-09-07T01:41:33;2.50;;;1.83;;
79401;SDS011;68857;47.916;106.940;2023-09-07T01:44:00;1.48;;;0.60;;
79401;SDS011;68857;47.916;106.940;2023-09-07T01:46:27;3.45;;;0.70;;
79401;SDS011;68857;47.916;106.940;2023-09-07T01:48:53;1.98;;;0.68;;
79401;SDS011;68857;47.916;106.940;2023-09-07T01:51:20;0.98;;;0.90;;
79401;SDS011;68857;47.916;106.940;2023-09-07T01:53:50;3.53;;;0.80;;
79401;SDS011;68857;47.916;106.940;2023-09-07T01:56:16;1.38;;;0.73;;
79401;SDS011;68857;47.916;106.940;2023-09-07T01:58:43;0.90;;;0.68;;
79401;SDS011;68857;47.916;106.940;2023-09-07T02:04:06;1.65;;;0.70;;
79401;SDS011;68857;47.916;106.940;2023-09-07T02:06:32;4.53;;;0.85;;
79401;SDS011;68857;47.916;106.940;2023-09-07T02:08:59;2.72;;;0.68;;
79401;SDS011;68857;47.916;106.940;2023-09-07T02:11:26;1.35;;;0.75;;
79401;SDS011;68857;47.916;106.940;2023-09-07T02:13:52;4.60;;;0.90;;
79401;SDS011;68857;47.916;106.940;2023-09-07T02:16:19;1.02;;;0.68;;
79401;SDS011;68857;47.916;106.940;2023-09-07T02:18:48;3.88;;;0.60;;
79401;SDS011;68857;47.916;106.940;2023-09-07T02:21:15;2.45;;;0.65;;
79401;SDS011;68857;47.916;106.940;2023-09-07T02:23:42;1.88;;;0.90;;
79401;SDS011;68857;47.916;106.940;2023-09-07T02:26:08;1.13;;;0.73;;
79401;SDS011;68857;47.916;106.940;2023-09-07T02:28:35;2.53;;;0.98;;
79401;SDS011;68857;47.916;106.940;2023-09-07T02:31:04;1.95;;;1.35;;
79401;SDS011;68857;47.916;106.940;2023-09-07T02:33:32;3.13;;;1.05;;
79401;SDS011;68857;47.916;106.940;2023-09-07T02:35:58;0.90;;;0.77;;
79401;SDS011;68857;47.916;106.940;2023-09-07T02:38:25;3.38;;;3.20;;
79401;SDS011;68857;47.916;106.940;2023-09-07T02:40:51;1.65;;;1.00;;
79401;SDS011;68857;47.916;106.940;2023-09-07T02:43:18;1.73;;;1.25;;
79401;SDS011;68857;47.916;106.940;2023-09-07T02:45:45;2.05;;;1.08;;
79401;SDS011;68857;47.916;106.940;2023-09-07T02:48:11;5.25;;;1.65;;
79401;SDS011;68857;47.916;106.940;2023-09-07T02:50:38;2.88;;;0.82;;
79401;SDS011;68857;47.916;106.940;2023-09-07T02:53:05;0.93;;;0.70;;
79401;SDS011;68857;47.916;106.940;2023-09-07T02:55:31;0.90;;;0.77;;
79401;SDS011;68857;47.916;106.940;2023-09-07T02:57:58;1.10;;;0.82;;
79401;SDS011;68857;47.916;106.940;2023-09-07T03:00:24;1.15;;;0.82;;
79401;SDS011;68857;47.916;106.940;2023-09-07T03:02:51;0.70;;;0.43;;
79401;SDS011;68857;47.916;106.940;2023-09-07T03:05:18;1.17;;;1.13;;
79401;SDS011;68857;47.916;106.940;2023-09-07T03:07:45;0.70;;;0.60;;
79401;SDS011;68857;47.916;106.940;2023-09-07T03:10:15;2.05;;;0.82;;
79401;SDS011;68857;47.916;106.940;2023-09-07T03:12:41;1.50;;;0.73;;
79401;SDS011;68857;47.916;106.940;2023-09-07T03:15:08;1.85;;;0.40;;
79401;SDS011;68857;47.916;106.940;2023-09-07T03:17:35;0.70;;;0.70;;
79401;SDS011;68857;47.916;106.940;2023-09-07T03:20:01;1.35;;;1.25;;
79401;SDS011;68857;47.916;106.940;2023-09-07T03:22:40;1.70;;;1.60;;
79401;SDS011;68857;47.916;106.940;2023-09-07T03:25:07;1.60;;;0.50;;
79401;SDS011;68857;47.916;106.940;2023-09-07T03:27:33;7.13;;;0.77;;
79401;SDS011;68857;47.916;106.940;2023-09-07T03:30:00;0.65;;;0.65;;
79401;SDS011;68857;47.916;106.940;2023-09-07T03:32:26;0.90;;;0.82;;
79401;SDS011;68857;47.916;106.940;2023-09-07T03:34:58;1.27;;;0.68;;
79401;SDS011;68857;47.916;106.940;2023-09-07T03:37:28;2.70;;;0.73;;
79401;SDS011;68857;47.916;106.940;2023-09-07T03:39:55;2.13;;;0.50;;
79401;SDS011;68857;47.916;106.940;2023-09-07T03:42:22;0.68;;;0.60;;
79401;SDS011;68857;47.916;106.940;2023-09-07T03:44:48;1.63;;;0.63;;
79401;SDS011;68857;47.916;106.940;2023-09-07T03:47:15;1.02;;;0.57;;
79401;SDS011;68857;47.916;106.940;2023-09-07T03:49:42;1.50;;;0.40;;
79401;SDS011;68857;47.916;106.940;2023-09-07T03:52:09;0.93;;;0.40;;
79401;SDS011;68857;47.916;106.940;2023-09-07T03:54:37;1.17;;;0.40;;
79401;SDS011;68857;47.916;106.940;2023-09-07T03:57:03;1.83;;;0.77;;
79401;SDS011;68857;47.916;106.940;2023-09-07T03:59:30;1.13;;;0.50;;
79401;SDS011;68857;47.916;106.940;2023-09-07T04:01:56;1.35;;;0.63;;
79401;SDS011;68857;47.916;106.940;2023-09-07T04:04:23;1.00;;;0.50;;
79401;SDS011;68857;47.916;106.940;2023-09-07T04:06:49;1.88;;;0.52;;
79401;SDS011;68857;47.916;106.940;2023-09-07T04:09:16;0.90;;;0.73;;
79401;SDS011;68857;47.916;106.940;2023-09-07T04:11:43;0.70;;;0.70;;
79401;SDS011;68857;47.916;106.940;2023-09-07T04:14:09;1.42;;;0.45;;
79401;SDS011;68857;47.916;106.940;2023-09-07T04:16:35;0.50;;;0.45;;
79401;SDS011;68857;47.916;106.940;2023-09-07T04:19:03;1.58;;;0.90;;
79401;SDS011;68857;47.916;106.940;2023-09-07T04:21:29;0.55;;;0.40;;
79401;SDS011;68857;47.916;106.940;2023-09-07T04:23:56;2.28;;;0.77;;
79401;SDS011;68857;47.916;106.940;2023-09-07T04:26:23;0.95;;;0.43;;
79401;SDS011;68857;47.916;106.940;2023-09-07T04:28:49;0.55;;;0.50;;
79401;SDS011;68857;47.916;106.940;2023-09-07T04:31:15;1.77;;;1.17;;
79401;SDS011;68857;47.916;106.940;2023-09-07T04:33:42;0.98;;;0.50;;
79401;SDS011;68857;47.916;106.940;2023-09-07T04:36:12;0.80;;;0.63;;
79401;SDS011;68857;47.916;106.940;2023-09-07T04:38:40;1.45;;;1.35;;
79401;SDS011;68857;47.916;106.940;2023-09-07T04:41:07;0.73;;;0.73;;
79401;SDS011;68857;47.916;106.940;2023-09-07T04:43:34;1.38;;;0.95;;
79401;SDS011;68857;47.916;106.940;2023-09-07T04:46:00;3.10;;;0.93;;
79401;SDS011;68857;47.916;106.940;2023-09-07T04:48:27;1.30;;;1.20;;
79401;SDS011;68857;47.916;106.940;2023-09-07T04:51:00;1.30;;;0.75;;
79401;SDS011;68857;47.916;106.940;2023-09-07T04:53:28;1.90;;;0.93;;
79401;SDS011;68857;47.916;106.940;2023-09-07T04:55:54;4.35;;;1.00;;
79401;SDS011;68857;47.916;106.940;2023-09-07T04:58:21;2.25;;;1.02;;
79401;SDS011;68857;47.916;106.940;2023-09-07T05:00:47;0.85;;;0.63;;
79401;SDS011;68857;47.916;106.940;2023-09-07T05:03:14;2.58;;;1.67;;
79401;SDS011;68857;47.916;106.940;2023-09-07T05:05:43;1.45;;;0.77;;
79401;SDS011;68857;47.916;106.940;2023-09-07T05:08:10;1.23;;;0.90;;
79401;SDS011;68857;47.916;106.940;2023-09-07T05:10:37;2.78;;;1.13;;
79401;SDS011;68857;47.916;106.940;2023-09-07T05:13:04;4.57;;;0.85;;
79401;SDS011;68857;47.916;106.940;2023-09-07T05:15:31;0.95;;;0.73;;
79401;SDS011;68857;47.916;106.940;2023-09-07T05:17:57;2.47;;;1.02;;
79401;SDS011;68857;47.916;106.940;2023-09-07T05:20:24;2.55;;;1.13;;
79401;SDS011;68857;47.916;106.940;2023-09-07T05:22:52;2.08;;;0.88;;
79401;SDS011;68857;47.916;106.940;2023-09-07T05:25:19;1.65;;;0.65;;
79401;SDS011;68857;47.916;106.940;2023-09-07T05:27:45;1.63;;;0.52;;
79401;SDS011;68857;47.916;106.940;2023-09-07T05:30:12;2.28;;;0.52;;
79401;SDS011;68857;47.916;106.940;2023-09-07T05:32:38;1.23;;;0.80;;
79401;SDS011;68857;47.916;106.940;2023-09-07T05:35:07;1.38;;;0.60;;
79401;SDS011;68857;47.916;106.940;2023-09-07T05:37:35;2.75;;;1.75;;
79401;SDS011;68857;47.916;106.940;2023-09-07T05:40:02;2.30;;;0.82;;
79401;SDS011;68857;47.916;106.940;2023-09-07T05:42:29;0.68;;;0.35;;
79401;SDS011;68857;47.916;106.940;2023-09-07T05:44:55;2.63;;;2.42;;
79401;SDS011;68857;47.916;106.940;2023-09-07T05:47:22;2.40;;;0.80;;
79401;SDS011;68857;47.916;106.940;2023-09-07T05:49:51;1.95;;;0.68;;
79401;SDS011;68857;47.916;106.940;2023-09-07T05:52:18;3.78;;;0.63;;
79401;SDS011;68857;47.916;106.940;2023-09-07T05:54:44;3.38;;;1.10;;
79401;SDS011;68857;47.916;106.940;2023-09-07T05:57:11;3.15;;;0.90;;
79401;SDS011;68857;47.916;106.940;2023-09-07T05:59:38;0.52;;;0.52;;
79401;SDS011;68857;47.916;106.940;2023-09-07T06:02:04;2.03;;;1.92;;
79401;SDS011;68857;47.916;106.940;2023-09-07T06:04:30;0.68;;;0.60;;
79401;SDS011;68857;47.916;106.940;2023-09-07T06:06:57;0.73;;;0.52;;
79401;SDS011;68857;47.916;106.940;2023-09-07T06:09:24;1.48;;;0.77;;
79401;SDS011;68857;47.916;106.940;2023-09-07T06:11:50;1.10;;;0.77;;
79401;SDS011;68857;47.916;106.940;2023-09-07T06:14:17;0.77;;;0.77;;
79401;SDS011;68857;47.916;106.940;2023-09-07T06:16:43;1.08;;;0.80;;
79401;SDS011;68857;47.916;106.940;2023-09-07T06:19:10;2.60;;;1.77;;
79401;SDS011;68857;47.916;106.940;2023-09-07T06:21:37;3.38;;;2.28;;
79401;SDS011;68857;47.916;106.940;2023-09-07T06:24:03;0.60;;;0.40;;
79401;SDS011;68857;47.916;106.940;2023-09-07T06:26:32;3.30;;;0.52;;
79401;SDS011;68857;47.916;106.940;2023-09-07T06:28:58;1.08;;;0.50;;
79401;SDS011;68857;47.916;106.940;2023-09-07T06:31:25;1.60;;;1.50;;
79401;SDS011;68857;47.916;106.940;2023-09-07T06:33:51;1.02;;;0.65;;
79401;SDS011;68857;47.916;106.940;2023-09-07T06:36:18;1.50;;;0.90;;
79401;SDS011;68857;47.916;106.940;2023-09-07T06:38:45;0.70;;;0.70;;
79401;SDS011;68857;47.916;106.940;2023-09-07T06:41:11;0.63;;;0.63;;
79401;SDS011;68857;47.916;106.940;2023-09-07T06:43:38;1.23;;;0.82;;
79401;SDS011;68857;47.916;106.940;2023-09-07T06:46:08;0.90;;;0.63;;
79401;SDS011;68857;47.916;106.940;2023-09-07T06:48:35;2.33;;;0.73;;
79401;SDS011;68857;47.916;106.940;2023-09-07T06:51:05;0.95;;;0.90;;
79401;SDS011;68857;47.916;106.940;2023-09-07T06:56:02;0.73;;;0.63;;
79401;SDS011;68857;47.916;106.940;2023-09-07T06:58:29;0.75;;;0.75;;
79401;SDS011;68857;47.916;106.940;2023-09-07T07:00:58;0.98;;;0.88;;
79401;SDS011;68857;47.916;106.940;2023-09-07T07:03:29;0.60;;;0.60;;
79401;SDS011;68857;47.916;106.940;2023-09-07T07:05:56;0.68;;;0.68;;
79401;SDS011;68857;47.916;106.940;2023-09-07T07:08:23;0.52;;;0.52;;
79401;SDS011;68857;47.916;106.940;2023-09-07T07:10:50;1.00;;;0.98;;
79401;SDS011;68857;47.916;106.940;2023-09-07T07:13:16;1.48;;;0.90;;
79401;SDS011;68857;47.916;106.940;2023-09-07T07:15:43;0.88;;;0.77;;
79401;SDS011;68857;47.916;106.940;2023-09-07T07:18:09;0.95;;;0.88;;
79401;SDS011;68857;47.916;106.940;2023-09-07T07:20:39;0.77;;;0.77;;
79401;SDS011;68857;47.916;106.940;2023-09-07T07:23:06;0.70;;;0.70;;
79401;SDS011;68857;47.916;106.940;2023-09-07T07:25:33;0.60;;;0.60;;
79401;SDS011;68857;47.916;106.940;2023-09-07T07:28:00;2.40;;;0.77;;
79401;SDS011;68857;47.916;106.940;2023-09-07T07:30:28;0.52;;;0.45;;
79401;SDS011;68857;47.916;106.940;2023-09-07T07:32:55;0.70;;;0.63;;
79401;SDS011;68857;47.916;106.940;2023-09-07T07:35:22;0.82;;;0.65;;
79401;SDS011;68857;47.916;106.940;2023-09-07T07:37:49;0.57;;;0.57;;
79401;SDS011;68857;47.916;106.940;2023-09-07T07:40:16;1.02;;;0.65;;
79401;SDS011;68857;47.916;106.940;2023-09-07T07:42:46;0.63;;;0.63;;
79401;SDS011;68857;47.916;106.940;2023-09-07T07:45:13;0.93;;;0.60;;
79401;SDS011;68857;47.916;106.940;2023-09-07T07:47:40;2.30;;;1.08;;
79401;SDS011;68857;47.916;106.940;2023-09-07T07:50:07;2.97;;;0.93;;
79401;SDS011;68857;47.916;106.940;2023-09-07T07:52:34;1.55;;;1.00;;
79401;SDS011;68857;47.916;106.940;2023-09-07T07:55:01;1.55;;;0.90;;
79401;SDS011;68857;47.916;106.940;2023-09-07T07:57:27;1.88;;;0.80;;
79401;SDS011;68857;47.916;106.940;2023-09-07T07:59:55;1.63;;;0.90;;
79401;SDS011;68857;47.916;106.940;2023-09-07T08:02:22;0.82;;;0.63;;
79401;SDS011;68857;47.916;106.940;2023-09-07T08:04:49;1.88;;;0.88;;
79401;SDS011;68857;47.916;106.940;2023-09-07T08:07:16;1.20;;;0.80;;
79401;SDS011;68857;47.916;106.940;2023-09-07T08:09:42;1.48;;;1.38;;
79401;SDS011;68857;47.916;106.940;2023-09-07T08:12:09;1.52;;;0.93;;
79401;SDS011;68857;47.916;106.940;2023-09-07T08:14:35;2.50;;;0.52;;
79401;SDS011;68857;47.916;106.940;2023-09-07T08:17:02;1.70;;;0.82;;
79401;SDS011;68857;47.916;106.940;2023-09-07T08:19:29;2.95;;;1.17;;
79401;SDS011;68857;47.916;106.940;2023-09-07T08:21:57;1.17;;;0.60;;
79401;SDS011;68857;47.916;106.940;2023-09-07T08:24:24;1.10;;;0.90;;
79401;SDS011;68857;47.916;106.940;2023-09-07T08:26:50;1.77;;;0.93;;
79401;SDS011;68857;47.916;106.940;2023-09-07T08:29:19;2.25;;;0.93;;
79401;SDS011;68857;47.916;106.940;2023-09-07T08:31:46;1.67;;;0.93;;
79401;SDS011;68857;47.916;106.940;2023-09-07T08:34:14;0.88;;;0.75;;
79401;SDS011;68857;47.916;106.940;2023-09-07T08:36:40;1.05;;;0.95;;
79401;SDS011;68857;47.916;106.940;2023-09-07T08:39:07;1.00;;;0.55;;
79401;SDS011;68857;47.916;106.940;2023-09-07T08:41:38;1.80;;;0.95;;
79401;SDS011;68857;47.916;106.940;2023-09-07T08:44:12;1.30;;;0.82;;
79401;SDS011;68857;47.916;106.940;2023-09-07T08:46:40;1.02;;;0.68;;
79401;SDS011;68857;47.916;106.940;2023-09-07T08:49:07;2.08;;;0.60;;
79401;SDS011;68857;47.916;106.940;2023-09-07T08:51:34;2.20;;;1.33;;
79401;SDS011;68857;47.916;106.940;2023-09-07T08:54:04;1.85;;;1.25;;
79401;SDS011;68857;47.916;106.940;2023-09-07T08:56:30;1.20;;;0.60;;
79401;SDS011;68857;47.916;106.940;2023-09-07T08:58:58;1.23;;;0.70;;
79401;SDS011;68857;47.916;106.940;2023-09-07T09:01:24;0.73;;;0.63;;
79401;SDS011;68857;47.916;106.940;2023-09-07T09:03:51;1.92;;;0.60;;
79401;SDS011;68857;47.916;106.940;2023-09-07T09:06:19;1.27;;;0.88;;
79401;SDS011;68857;47.916;106.940;2023-09-07T09:08:49;1.27;;;0.98;;
79401;SDS011;68857;47.916;106.940;2023-09-07T09:11:17;0.77;;;0.75;;
79401;SDS011;68857;47.916;106.940;2023-09-07T09:13:44;1.95;;;0.60;;
79401;SDS011;68857;47.916;106.940;2023-09-07T09:16:12;1.27;;;0.82;;
79401;SDS011;68857;47.916;106.940;2023-09-07T09:18:52;0.98;;;0.77;;
79401;SDS011;68857;47.916;106.940;2023-09-07T09:21:26;1.98;;;0.50;;
79401;SDS011;68857;47.916;106.940;2023-09-07T09:23:53;1.65;;;0.65;;
79401;SDS011;68857;47.916;106.940;2023-09-07T09:26:20;1.13;;;0.50;;
79401;SDS011;68857;47.916;106.940;2023-09-07T09:28:46;0.68;;;0.47;;
79401;SDS011;68857;47.916;106.940;2023-09-07T09:31:15;1.80;;;0.50;;
79401;SDS011;68857;47.916;106.940;2023-09-07T09:33:42;0.63;;;0.50;;
79401;SDS011;68857;47.916;106.940;2023-09-07T09:36:09;0.77;;;0.60;;
79401;SDS011;68857;47.916;106.940;2023-09-07T09:38:35;2.08;;;0.68;;
79401;SDS011;68857;47.916;106.940;2023-09-07T09:41:02;1.63;;;1.42;;
79401;SDS011;68857;47.916;106.940;2023-09-07T09:43:29;1.23;;;0.60;;
79401;SDS011;68857;47.916;106.940;2023-09-07T09:45:56;1.80;;;0.40;;
79401;SDS011;68857;47.916;106.940;2023-09-07T09:48:23;0.77;;;0.63;;
79401;SDS011;68857;47.916;106.940;2023-09-07T09:50:50;1.27;;;0.63;;
79401;SDS011;68857;47.916;106.940;2023-09-07T09:53:17;0.70;;;0.43;;
79401;SDS011;68857;47.916;106.940;2023-09-07T09:55:46;1.80;;;0.73;;
79401;SDS011;68857;47.916;106.940;2023-09-07T09:58:16;1.15;;;1.05;;
79401;SDS011;68857;47.916;106.940;2023-09-07T10:00:46;0.80;;;0.60;;
79401;SDS011;68857;47.916;106.940;2023-09-07T10:03:18;0.70;;;0.43;;
79401;SDS011;68857;47.916;106.940;2023-09-07T10:05:49;0.40;;;0.35;;
79401;SDS011;68857;47.916;106.940;2023-09-07T10:08:17;1.23;;;0.60;;
79401;SDS011;68857;47.916;106.940;2023-09-07T10:10:46;1.20;;;0.50;;
79401;SDS011;68857;47.916;106.940;2023-09-07T10:13:13;1.27;;;0.70;;
79401;SDS011;68857;47.916;106.940;2023-09-07T10:15:40;1.13;;;0.55;;
79401;SDS011;68857;47.916;106.940;2023-09-07T10:20:46;2.28;;;0.60;;
79401;SDS011;68857;47.916;106.940;2023-09-07T10:23:14;0.88;;;0.80;;
79401;SDS011;68857;47.916;106.940;2023-09-07T10:25:40;0.80;;;0.73;;
79401;SDS011;68857;47.916;106.940;2023-09-07T10:30:46;1.23;;;0.57;;
79401;SDS011;68857;47.916;106.940;2023-09-07T10:35:49;1.15;;;0.63;;
79401;SDS011;68857;47.916;106.940;2023-09-07T10:38:16;2.05;;;0.50;;
79401;SDS011;68857;47.916;106.940;2023-09-07T10:40:43;1.35;;;1.27;;
79401;SDS011;68857;47.916;106.940;2023-09-07T10:43:13;1.25;;;0.52;;
79401;SDS011;68857;47.916;106.940;2023-09-07T10:45:43;1.00;;;0.98;;
79401;SDS011;68857;47.916;106.940;2023-09-07T10:48:10;0.50;;;0.45;;
79401;SDS011;68857;47.916;106.940;2023-09-07T10:50:44;2.20;;;0.65;;
79401;SDS011;68857;47.916;106.940;2023-09-07T10:53:14;0.75;;;0.57;;
79401;SDS011;68857;47.916;106.940;2023-09-07T10:55:41;0.75;;;0.50;;
79401;SDS011;68857;47.916;106.940;2023-09-07T10:58:08;2.03;;;0.95;;
79401;SDS011;68857;47.916;106.940;2023-09-07T11:00:36;0.57;;;0.50;;
79401;SDS011;68857;47.916;106.940;2023-09-07T11:03:07;1.33;;;0.57;;
79401;SDS011;68857;47.916;106.940;2023-09-07T11:05:35;0.85;;;0.70;;
79401;SDS011;68857;47.916;106.940;2023-09-07T11:08:04;3.10;;;1.48;;
79401;SDS011;68857;47.916;106.940;2023-09-07T11:10:34;0.90;;;0.70;;
79401;SDS011;68857;47.916;106.940;2023-09-07T11:13:02;0.95;;;0.82;;
79401;SDS011;68857;47.916;106.940;2023-09-07T11:15:29;1.10;;;0.57;;
79401;SDS011;68857;47.916;106.940;2023-09-07T11:17:57;2.10;;;1.50;;
79401;SDS011;68857;47.916;106.940;2023-09-07T11:20:23;3.88;;;1.50;;
79401;SDS011;68857;47.916;106.940;2023-09-07T11:22:51;5.03;;;1.98;;
79401;SDS011;68857;47.916;106.940;2023-09-07T11:25:17;7.07;;;3.63;;
79401;SDS011;68857;47.916;106.940;2023-09-07T11:27:44;11.35;;;4.30;;
79401;SDS011;68857;47.916;106.940;2023-09-07T11:30:10;14.80;;;4.97;;
79401;SDS011;68857;47.916;106.940;2023-09-07T11:32:37;19.10;;;6.45;;
79401;SDS011;68857;47.916;106.940;2023-09-07T11:35:05;10.48;;;4.13;;
79401;SDS011;68857;47.916;106.940;2023-09-07T11:37:32;14.00;;;4.80;;
79401;SDS011;68857;47.916;106.940;2023-09-07T11:40:01;13.40;;;4.57;;
79401;SDS011;68857;47.916;106.940;2023-09-07T11:42:29;17.75;;;5.55;;
79401;SDS011;68857;47.916;106.940;2023-09-07T11:44:56;17.48;;;5.18;;
79401;SDS011;68857;47.916;106.940;2023-09-07T11:47:23;14.05;;;5.10;;
79401;SDS011;68857;47.916;106.940;2023-09-07T11:49:49;13.07;;;4.57;;
79401;SDS011;68857;47.916;106.940;2023-09-07T11:52:18;12.75;;;3.63;;
79401;SDS011;68857;47.916;106.940;2023-09-07T11:54:45;11.32;;;3.70;;
79401;SDS011;68857;47.916;106.940;2023-09-07T11:57:11;13.00;;;4.18;;
79401;SDS011;68857;47.916;106.940;2023-09-07T11:59:38;9.50;;;3.85;;
79401;SDS011;68857;47.916;106.940;2023-09-07T12:02:04;9.45;;;3.30;;
79401;SDS011;68857;47.916;106.940;2023-09-07T12:04:31;12.40;;;3.78;;
79401;SDS011;68857;47.916;106.940;2023-09-07T12:06:58;11.13;;;4.05;;
79401;SDS011;68857;47.916;106.940;2023-09-07T12:09:25;10.65;;;4.10;;
79401;SDS011;68857;47.916;106.940;2023-09-07T12:11:51;10.48;;;4.25;;
79401;SDS011;68857;47.916;106.940;2023-09-07T12:14:18;12.27;;;4.55;;
79401;SDS011;68857;47.916;106.940;2023-09-07T12:16:44;11.77;;;4.43;;
79401;SDS011;68857;47.916;106.940;2023-09-07T12:19:11;9.77;;;4.20;;
79401;SDS011;68857;47.916;106.940;2023-09-07T12:21:38;12.63;;;5.68;;
79401;SDS011;68857;47.916;106.940;2023-09-07T12:24:04;11.88;;;4.80;;
79401;SDS011;68857;47.916;106.940;2023-09-07T12:26:31;10.85;;;4.43;;
79401;SDS011;68857;47.916;106.940;2023-09-07T12:28:57;13.20;;;4.60;;
79401;SDS011;68857;47.916;106.940;2023-09-07T12:31:24;10.65;;;4.05;;
79401;SDS011;68857;47.916;106.940;2023-09-07T12:33:51;13.45;;;4.95;;
79401;SDS011;68857;47.916;106.940;2023-09-07T12:36:18;13.13;;;4.97;;
79401;SDS011;68857;47.916;106.940;2023-09-07T12:38:46;12.55;;;4.78;;
79401;SDS011;68857;47.916;106.940;2023-09-07T12:41:13;14.00;;;4.68;;
79401;SDS011;68857;47.916;106.940;2023-09-07T12:43:41;13.35;;;4.70;;
79401;SDS011;68857;47.916;106.940;2023-09-07T12:46:10;10.18;;;5.10;;
79401;SDS011;68857;47.916;106.940;2023-09-07T12:48:37;9.95;;;4.57;;
79401;SDS011;68857;47.916;106.940;2023-09-07T12:51:04;7.60;;;3.75;;
79401;SDS011;68857;47.916;106.940;2023-09-07T12:53:31;10.52;;;3.83;;
79401;SDS011;68857;47.916;106.940;2023-09-07T12:55:57;10.30;;;4.40;;
79401;SDS011;68857;47.916;106.940;2023-09-07T12:58:26;12.48;;;4.18;;
79401;SDS011;68857;47.916;106.940;2023-09-07T13:00:53;9.20;;;3.92;;
79401;SDS011;68857;47.916;106.940;2023-09-07T13:03:19;11.75;;;4.82;;
79401;SDS011;68857;47.916;106.940;2023-09-07T13:05:46;17.50;;;4.50;;
79401;SDS011;68857;47.916;106.940;2023-09-07T13:08:14;9.45;;;3.22;;
79401;SDS011;68857;47.916;106.940;2023-09-07T13:10:40;9.23;;;3.13;;
79401;SDS011;68857;47.916;106.940;2023-09-07T13:13:07;10.45;;;3.53;;
79401;SDS011;68857;47.916;106.940;2023-09-07T13:15:34;9.13;;;3.92;;
79401;SDS011;68857;47.916;106.940;2023-09-07T13:18:00;9.77;;;3.92;;
79401;SDS011;68857;47.916;106.940;2023-09-07T13:20:27;9.32;;;3.63;;
79401;SDS011;68857;47.916;106.940;2023-09-07T13:22:54;12.07;;;3.55;;
79401;SDS011;68857;47.916;106.940;2023-09-07T13:25:20;9.32;;;3.10;;
79401;SDS011;68857;47.916;106.940;2023-09-07T13:27:47;11.45;;;3.90;;
79401;SDS011;68857;47.916;106.940;2023-09-07T13:30:14;10.40;;;3.28;;
79401;SDS011;68857;47.916;106.940;2023-09-07T13:32:41;8.10;;;3.15;;
79401;SDS011;68857;47.916;106.940;2023-09-07T13:35:07;8.65;;;3.60;;
79401;SDS011;68857;47.916;106.940;2023-09-07T13:37:34;11.57;;;3.10;;
79401;SDS011;68857;47.916;106.940;2023-09-07T13:40:01;12.18;;;3.40;;
79401;SDS011;68857;47.916;106.940;2023-09-07T13:42:28;7.53;;;3.03;;
79401;SDS011;68857;47.916;106.940;2023-09-07T13:44:55;9.68;;;3.15;;
79401;SDS011;68857;47.916;106.940;2023-09-07T13:47:22;6.30;;;2.78;;
79401;SDS011;68857;47.916;106.940;2023-09-07T13:49:48;7.88;;;2.78;;
79401;SDS011;68857;47.916;106.940;2023-09-07T13:52:15;8.63;;;2.78;;
79401;SDS011;68857;47.916;106.940;2023-09-07T13:54:42;10.80;;;3.10;;
79401;SDS011;68857;47.916;106.940;2023-09-07T13:57:09;13.48;;;2.67;;
79401;SDS011;68857;47.916;106.940;2023-09-07T13:59:36;6.80;;;3.25;;
79401;SDS011;68857;47.916;106.940;2023-09-07T14:02:02;7.00;;;2.00;;
79401;SDS011;68857;47.916;106.940;2023-09-07T14:04:29;5.68;;;2.40;;
79401;SDS011;68857;47.916;106.940;2023-09-07T14:06:56;7.95;;;3.15;;
79401;SDS011;68857;47.916;106.940;2023-09-07T14:09:22;7.00;;;2.30;;
79401;SDS011;68857;47.916;106.940;2023-09-07T14:11:49;6.70;;;2.55;;
79401;SDS011;68857;47.916;106.940;2023-09-07T14:14:16;6.18;;;2.45;;
79401;SDS011;68857;47.916;106.940;2023-09-07T14:16:42;6.43;;;3.05;;
79401;SDS011;68857;47.916;106.940;2023-09-07T14:19:10;5.72;;;2.40;;
79401;SDS011;68857;47.916;106.940;2023-09-07T14:21:37;6.97;;;2.92;;
79401;SDS011;68857;47.916;106.940;2023-09-07T14:24:03;8.95;;;2.83;;
79401;SDS011;68857;47.916;106.940;2023-09-07T14:26:30;7.60;;;2.92;;
79401;SDS011;68857;47.916;106.940;2023-09-07T14:28:57;7.93;;;2.60;;
79401;SDS011;68857;47.916;106.940;2023-09-07T14:31:23;7.63;;;2.47;;
79401;SDS011;68857;47.916;106.940;2023-09-07T14:33:50;5.75;;;2.38;;
79401;SDS011;68857;47.916;106.940;2023-09-07T14:36:17;7.50;;;2.65;;